Time;durP1;ratioP1;P1;durP2;ratioP2;P2;SDS_P1;SDS_P2;PMS_P1;PMS_P2;Temp;Humidity;BMP_temperature;BMP_pressure;BME280_temperature;BME280_humidity;BME280_pressure;Samples;Min_cycle;Max_cycle;Signal;HPM_P1;HPM_P2
2022/06/10 00:08:19;;;;;;;6.40;3.77;;;16.30;92.90;;;;;;21079926;28;20213;-63
2022/06/10 00:18:24;;;;;;;4.73;3.50;;;16.20;93.10;;;;;;21078760;28;20260;-63
2022/06/10 00:28:25;;;;;;;7.23;4.07;;;16.20;93.30;;;;;;21078212;28;20240;-62
2022/06/10 00:38:27;;;;;;;8.70;4.80;;;16.00;93.40;;;;;;21078173;28;20245;-64
2022/06/10 00:49:00;;;;;;;7.00;3.87;;;16.00;93.60;;;;;;21077926;28;20210;-63
2022/06/10 00:59:10;;;;;;;8.63;4.43;;;16.00;93.90;;;;;;21076420;28;20234;-64
2022/06/10 01:09:13;;;;;;;6.80;4.50;;;15.90;94.00;;;;;;21077087;28;20554;-66
2022/06/10 01:19:43;;;;;;;8.80;5.00;;;15.90;94.10;;;;;;21076282;28;20238;-64
2022/06/10 01:30:00;;;;;;;6.80;4.57;;;15.70;94.30;;;;;;21058247;28;20653;-63
2022/06/10 01:40:23;;;;;;;6.10;4.23;;;15.70;94.60;;;;;;21091614;28;20210;-70
2022/06/10 01:50:33;;;;;;;6.77;4.40;;;15.70;94.60;;;;;;21090285;28;20233;-62
2022/06/10 02:00:39;;;;;;;7.43;4.50;;;15.50;94.60;;;;;;21090650;28;20666;-64
2022/06/10 02:10:54;;;;;;;6.00;4.30;;;15.50;94.70;;;;;;21089343;28;20227;-65
2022/06/10 02:21:05;;;;;;;5.43;4.40;;;15.40;94.80;;;;;;21088555;28;20683;-64
2022/06/10 02:31:13;;;;;;;6.73;4.63;;;15.30;94.80;;;;;;21087070;28;20286;-70
2022/06/10 02:41:24;;;;;;;7.50;4.50;;;15.30;94.90;;;;;;21068586;28;20213;-66
2022/06/10 02:51:28;;;;;;;8.77;4.73;;;15.20;94.90;;;;;;21085294;28;20241;-68
2022/06/10 03:01:41;;;;;;;5.07;4.50;;;15.00;95.00;;;;;;21084545;28;20213;-71
2022/06/10 03:11:55;;;;;;;8.20;5.80;;;15.00;95.10;;;;;;21085040;28;20708;-72
2022/06/10 03:22:26;;;;;;;7.00;5.10;;;14.80;95.00;;;;;;21084775;28;20241;-69
2022/06/10 03:32:47;;;;;;;7.60;5.03;;;14.80;95.20;;;;;;21082380;28;20333;-70
2022/06/10 03:42:54;;;;;;;7.77;5.20;;;14.80;95.30;;;;;;21081512;28;20542;-70
2022/06/10 03:52:56;;;;;;;5.10;4.50;;;14.70;95.40;;;;;;21080429;28;20597;-69
2022/06/10 04:02:58;;;;;;;9.23;5.10;;;14.70;95.40;;;;;;21079818;28;20205;-67
2022/06/10 04:12:59;;;;;;;8.03;5.03;;;14.70;95.60;;;;;;21079306;28;20232;-69
2022/06/10 04:23:02;;;;;;;8.20;5.43;;;14.70;95.80;;;;;;21076650;28;20542;-68
2022/06/10 04:33:05;;;;;;;13.70;6.70;;;14.70;96.00;;;;;;21077935;28;20250;-62
2022/06/10 04:43:07;;;;;;;10.17;5.47;;;14.80;96.10;;;;;;21076180;28;20692;-63
2022/06/10 04:53:09;;;;;;;8.50;5.40;;;15.00;96.10;;;;;;21076290;28;20266;-65
2022/06/10 05:03:11;;;;;;;8.63;5.40;;;15.10;96.20;;;;;;21077206;28;20217;-68
2022/06/10 05:13:16;;;;;;;10.80;5.20;;;15.30;96.10;;;;;;21092554;28;20696;-70
2022/06/10 05:23:20;;;;;;;10.60;5.70;;;15.50;96.00;;;;;;21092490;28;20264;-70
2022/06/10 05:33:22;;;;;;;14.03;5.87;;;15.80;95.90;;;;;;21091114;28;20242;-71
2022/06/10 05:43:24;;;;;;;8.57;6.17;;;16.00;95.60;;;;;;21089874;28;20205;-65
2022/06/10 05:53:26;;;;;;;11.90;5.90;;;16.20;95.50;;;;;;21071805;28;20246;-63
2022/06/10 06:03:27;;;;;;;9.07;6.20;;;16.40;95.40;;;;;;21088578;28;20238;-62
2022/06/10 06:13:29;;;;;;;15.20;7.80;;;16.70;95.30;;;;;;21086647;28;20264;-62
2022/06/10 06:23:32;;;;;;;12.90;7.80;;;16.90;95.00;;;;;;21085610;28;20211;-64
2022/06/10 06:33:33;;;;;;;13.50;7.00;;;17.10;94.80;;;;;;21084577;28;20332;-63
2022/06/10 06:43:35;;;;;;;15.10;6.87;;;17.30;94.70;;;;;;21085427;28;20576;-63
2022/06/10 06:53:37;;;;;;;12.97;7.30;;;17.60;94.50;;;;;;21084805;28;20281;-63
2022/06/10 07:03:39;;;;;;;9.00;6.10;;;17.90;94.10;;;;;;21083634;28;20214;-63
2022/06/10 07:13:41;;;;;;;11.50;5.20;;;18.00;93.80;;;;;;21064327;28;20288;-64
2022/06/10 07:23:43;;;;;;;12.53;5.90;;;18.30;93.40;;;;;;21082325;28;20652;-65
2022/06/10 07:33:44;;;;;;;9.63;4.80;;;18.60;93.00;;;;;;21082633;28;20274;-69
2022/06/10 07:43:46;;;;;;;10.23;3.70;;;18.80;92.50;;;;;;21060820;28;20207;-63
2022/06/10 07:53:49;;;;;;;14.53;7.73;;;19.20;92.00;;;;;;21077454;28;20637;-67
2022/06/10 08:03:52;;;;;;;6.90;3.17;;;19.40;91.30;;;;;;21076580;28;20208;-65
2022/06/10 08:13:54;;;;;;;3.17;2.03;;;19.60;90.20;;;;;;21076464;28;20655;-65
2022/06/10 08:23:56;;;;;;;3.17;1.90;;;19.70;87.10;;;;;;21085550;28;20213;-63
2022/06/10 08:33:58;;;;;;;2.73;1.77;;;19.90;84.70;;;;;;21076805;28;20560;-66
2022/06/10 08:44:27;;;;;;;4.07;2.53;;;20.10;82.80;;;;;;21091968;28;20296;-66
2022/06/10 08:54:31;;;;;;;4.40;2.20;;;20.40;80.10;;;;;;21104638;28;20242;-68
2022/06/10 09:04:56;;;;;;;4.63;2.03;;;20.60;78.10;;;;;;21103835;28;20707;-68
2022/06/10 09:15:03;;;;;;;4.00;2.70;;;20.70;75.50;;;;;;21102770;28;20731;-65
2022/06/10 09:25:17;;;;;;;3.73;1.80;;;20.90;73.50;;;;;;21102925;28;20248;-65
2022/06/10 09:35:40;;;;;;;4.47;1.73;;;21.10;72.00;;;;;;21102183;28;20237;-67
2022/06/10 09:46:00;;;;;;;7.93;2.80;;;21.20;71.90;;;;;;21102375;28;20233;-69
2022/06/10 09:56:29;;;;;;;3.07;1.60;;;21.60;71.10;;;;;;21092934;28;20291;-68
2022/06/10 10:06:50;;;;;;;7.37;2.50;;;21.60;69.00;;;;;;21087874;28;20305;-69
2022/06/10 10:17:29;;;;;;;7.23;1.83;;;21.80;67.30;;;;;;21086964;28;20240;-64
2022/06/10 10:27:33;;;;;;;6.43;3.10;;;21.80;66.40;;;;;;21058228;28;20241;-66
2022/06/10 10:37:37;;;;;;;3.37;2.00;;;21.80;63.20;;;;;;21003061;28;20648;-66
2022/06/10 10:47:46;;;;;;;4.07;1.83;;;22.00;63.00;;;;;;21001362;28;20614;-64
2022/06/10 10:58:12;;;;;;;2.53;1.63;;;22.10;62.60;;;;;;20999290;28;20235;-62
2022/06/10 11:08:20;;;;;;;3.03;2.03;;;22.40;59.80;;;;;;20999591;28;20219;-65
2022/06/10 11:18:22;;;;;;;3.30;2.03;;;22.40;58.60;;;;;;20998418;28;20634;-64
2022/06/10 11:28:23;;;;;;;5.17;1.40;;;22.40;58.00;;;;;;20997111;28;20265;-64
2022/06/10 11:38:32;;;;;;;2.30;1.50;;;22.40;58.00;;;;;;20989204;28;20231;-65
2022/06/10 11:48:40;;;;;;;4.97;1.90;;;22.40;57.90;;;;;;20990548;28;20218;-64
2022/06/10 12:09:38;;;;;;;4.37;1.93;;;23.10;57.30;;;;;;20991393;28;20203;-64
2022/06/10 12:19:45;;;;;;;2.17;1.80;;;22.90;57.90;;;;;;20975169;28;20706;-64
2022/06/10 12:30:17;;;;;;;4.27;2.50;;;23.10;57.30;;;;;;21039283;28;20636;-64
2022/06/10 12:40:40;;;;;;;4.03;1.50;;;23.00;56.60;;;;;;21077587;28;20276;-64
2022/06/10 12:50:59;;;;;;;2.23;1.57;;;23.30;56.40;;;;;;21077040;28;20297;-65
2022/06/10 13:01:40;;;;;;;5.37;1.70;;;23.40;56.40;;;;;;21076368;28;20255;-64
2022/06/10 13:11:54;;;;;;;2.63;1.80;;;23.70;56.20;;;;;;21075641;28;20233;-67
2022/06/10 13:22:17;;;;;;;5.10;3.40;;;23.70;56.80;;;;;;21079855;28;20260;-69
2022/06/10 13:32:19;;;;;;;2.63;1.80;;;23.50;57.50;;;;;;21052020;28;20270;-65
2022/06/10 13:42:30;;;;;;;2.37;2.00;;;23.90;57.10;;;;;;21090413;28;20654;-68
2022/06/10 13:52:35;;;;;;;3.63;1.90;;;23.90;56.50;;;;;;21090378;28;20802;-68
2022/06/10 14:02:39;;;;;;;5.37;1.73;;;23.80;56.70;;;;;;21071381;28;20238;-68
2022/06/10 14:12:53;;;;;;;4.13;2.27;;;24.10;56.40;;;;;;21088471;28;20292;-69
2022/06/10 14:23:20;;;;;;;3.73;1.60;;;24.20;55.50;;;;;;21088278;28;20216;-67
2022/06/10 14:33:37;;;;;;;4.87;2.30;;;24.40;55.30;;;;;;21086749;28;20270;-67
2022/06/10 14:44:17;;;;;;;3.77;1.63;;;24.60;54.50;;;;;;21067974;28;20214;-66
2022/06/10 14:54:27;;;;;;;7.53;2.00;;;24.50;54.30;;;;;;21085189;28;20230;-66
2022/06/10 15:04:29;;;;;;;3.80;1.70;;;24.20;54.60;;;;;;21084350;28;20709;-66
2022/06/10 15:14:52;;;;;;;4.73;1.80;;;24.40;54.40;;;;;;21084311;28;20689;-68
2022/06/10 15:24:54;;;;;;;3.23;1.77;;;24.70;54.10;;;;;;21083098;28;20235;-68
2022/06/10 15:45:17;;;;;;;4.97;1.80;;;24.50;54.10;;;;;;21081195;28;20256;-65
2022/06/10 16:05:51;;;;;;;5.17;2.03;;;24.10;54.30;;;;;;21080458;28;20205;-67
2022/06/10 16:15:57;;;;;;;4.47;1.80;;;24.10;54.50;;;;;;21078724;28;20234;-67
2022/06/10 16:26:02;;;;;;;4.73;1.80;;;25.30;53.50;;;;;;21061007;28;20702;-65
2022/06/10 16:36:04;;;;;;;3.07;1.70;;;25.20;53.00;;;;;;21079582;28;20230;-68
2022/06/10 16:46:19;;;;;;;5.00;1.80;;;24.70;52.90;;;;;;21078021;28;20237;-67
2022/06/10 16:56:25;;;;;;;3.53;1.70;;;24.20;53.10;;;;;;21077668;28;20234;-64
2022/06/10 17:06:27;;;;;;;7.50;1.60;;;24.00;53.40;;;;;;21089258;28;20206;-65
2022/06/10 17:16:34;;;;;;;4.27;1.77;;;24.20;53.30;;;;;;21075775;28;20231;-65
2022/06/10 17:26:43;;;;;;;6.63;1.70;;;24.20;53.30;;;;;;21092972;28;20700;-66
2022/06/10 17:36:45;;;;;;;3.20;1.60;;;24.00;53.20;;;;;;21092461;28;20241;-68
2022/06/10 17:46:53;;;;;;;4.20;1.40;;;24.40;52.40;;;;;;21091838;28;20281;-67
2022/06/10 17:56:59;;;;;;;3.47;1.63;;;24.00;52.80;;;;;;21095459;28;20312;-66
2022/06/10 18:07:01;;;;;;;5.77;2.40;;;23.70;53.30;;;;;;21090820;28;20231;-66
2022/06/10 18:17:15;;;;;;;8.40;2.13;;;23.60;53.80;;;;;;21069905;28;20321;-68
2022/06/10 18:27:38;;;;;;;7.87;1.70;;;23.60;54.20;;;;;;21074481;28;20253;-66
2022/06/10 18:37:41;;;;;;;5.60;1.63;;;23.60;54.10;;;;;;21087430;28;20694;-67
2022/06/10 18:47:43;;;;;;;4.27;1.87;;;23.50;53.90;;;;;;21085169;28;20277;-70
2022/06/10 18:57:48;;;;;;;2.60;1.80;;;23.30;53.80;;;;;;21081462;28;20230;-71
2022/06/10 19:07:50;;;;;;;3.10;1.83;;;23.10;54.40;;;;;;21084429;28;20206;-69
2022/06/10 19:17:55;;;;;;;5.33;2.10;;;22.90;55.40;;;;;;21083913;28;20237;-69
2022/06/10 19:27:57;;;;;;;3.93;2.03;;;22.70;56.40;;;;;;21083008;28;20226;-66
2022/06/10 19:38:03;;;;;;;13.10;2.30;;;22.50;57.80;;;;;;21082587;28;20230;-67
2022/06/10 19:48:27;;;;;;;7.20;2.07;;;22.20;58.60;;;;;;21060906;28;20207;-70
2022/06/10 19:58:33;;;;;;;10.70;2.83;;;21.90;60.00;;;;;;21080132;28;20230;-68
2022/06/10 20:08:36;;;;;;;4.63;2.77;;;21.70;61.20;;;;;;21080271;28;20214;-67
2022/06/10 20:18:40;;;;;;;10.50;3.57;;;21.50;62.80;;;;;;21079725;28;20623;-65
2022/06/10 20:28:42;;;;;;;5.43;3.10;;;21.20;63.50;;;;;;21078566;28;20249;-68
2022/06/10 20:38:45;;;;;;;7.90;3.10;;;21.00;64.40;;;;;;21078251;28;20917;-67
2022/06/10 20:48:47;;;;;;;10.37;4.23;;;20.70;66.00;;;;;;21077817;28;20209;-64
2022/06/10 20:58:50;;;;;;;4.57;2.60;;;20.50;67.70;;;;;;21077465;28;20248;-67
2022/06/10 21:08:52;;;;;;;5.70;3.23;;;20.20;68.80;;;;;;21077634;28;20663;-64
2022/06/10 21:18:54;;;;;;;5.60;2.93;;;19.90;69.80;;;;;;21076848;28;20239;-63
2022/06/10 21:28:59;;;;;;;13.53;3.57;;;19.70;71.10;;;;;;21076523;28;20590;-65
2022/06/10 21:39:06;;;;;;;5.30;3.10;;;19.40;72.70;;;;;;21058883;28;20235;-69
2022/06/10 21:49:10;;;;;;;7.00;4.10;;;19.20;74.20;;;;;;21079447;28;20215;-68
2022/06/10 21:59:17;;;;;;;5.73;3.53;;;19.00;75.60;;;;;;21090337;28;20238;-67
2022/06/10 22:09:23;;;;;;;9.77;3.67;;;18.80;77.30;;;;;;21089992;28;20236;-66
2022/06/10 22:19:37;;;;;;;7.70;3.87;;;18.60;78.10;;;;;;21088712;28;20235;-67
2022/06/10 22:29:39;;;;;;;8.00;5.17;;;18.60;78.90;;;;;;21087833;28;20239;-68
2022/06/10 22:39:41;;;;;;;9.97;3.40;;;18.40;80.10;;;;;;21087326;28;20724;-69
2022/06/10 22:50:00;;;;;;;6.07;3.47;;;18.20;81.10;;;;;;21086820;28;20271;-65
2022/06/10 23:00:11;;;;;;;7.73;3.50;;;18.10;81.90;;;;;;21085546;28;20705;-62
2022/06/10 23:10:31;;;;;;;6.70;3.63;;;17.90;82.70;;;;;;21085032;28;20213;-68
2022/06/10 23:20:39;;;;;;;4.20;3.20;;;17.70;83.40;;;;;;21084332;28;20318;-69
2022/06/10 23:30:47;;;;;;;6.57;3.20;;;17.60;84.10;;;;;;21083120;28;20231;-66
2022/06/10 23:40:51;;;;;;;3.83;3.20;;;17.50;84.60;;;;;;21083149;28;20323;-68
2022/06/10 23:50:52;;;;;;;4.90;3.23;;;17.30;85.70;;;;;;21082609;28;20220;-69
